Cocoville, Louisiana
Current Conditions -  °F | °C
As of 2:53 AM on Sunday 23 Nov 2014 (Local Time) from KESF Reporting Station
Light Rain Light Rain  
Wind Chill: 64°   Ceiling: 500
Heat Index: 64°   Visibility: 10mi
Dew Point: 62°   Wind: 10mph
Humidity: 93%   Direction: 140°SE
Pressure: 29.74"   Gusts: NA
Location:  31.0649°N, 92.0567°W
Report Text: KESF 230853Z AUTO 14009KT 10SM -RA OVC005 18/17 A2974 RMK AO2 LTG DSNT S SLP070 P0004 60006 T01780167 56027
Loading
Personal Weather Stations






























Interactive Weather Map New forecast layout! Learn more

10-Day Weather Forecast

Advertisements
Track Severe Weather on mobile